Portada
METAR-TAF:

METAR-TAF

Aeroports :

Base aèria

Tafraoui, Algèria

latitud: 35-32-33N, longitud: 000-31-56W, altitud: 112 m

Observació

L'informe es va fer fa 3 hores i 15 minuts, a les 12:00 UTC
Vent calma
Temperatura 13°C
Humitat 88%
Pressió 1016 hPa
Visibilitat 10 km o més
Escasses núvols a una alçada de 1300 ft
Núvols disperses a una alçada de 2600 ft
Cel ennuvolat a una alçada de 8000 ft

METAR: DAOL 191200Z 00000KT 9999 FEW013 SCT026 BKN080 13/11 Q1016

Hora: 16:15 (15:15 UTC)


TAF: manca

Observacions i pronòstics meteorològics de més de 4000 aeroports (METAR i TAF).

Les estacions disponibles són els punts grocs i vermells al mapa.

Posi el ratolí al punt desitjat per veure el nom de l'estació.

Feu clic per veure les observacions i els pronòstics meteorològics.

Per canviar el mapa: feu clic els botons verds amb una creu de color negre per apropar; al botó verd amb un guió per allunyar la imatge; o en les fletxes verdes per a mapes adjacents.


METAR-TAF: